Time;durP1;ratioP1;P1;durP2;ratioP2;P2;SDS_P1;SDS_P2;PMS_P1;PMS_P2;Temp;Humidity;BMP_temperature;BMP_pressure;BME280_temperature;BME280_humidity;BME280_pressure;Samples;Min_cycle;Max_cycle;Signal;HPM_P1;HPM_P2
2021/12/04 00:00:08;;;;;;;18.42;8.70;;;;;;;-0.47;67.31;99364.87;2169334;81;21484;-75
2021/12/04 00:03:12;;;;;;;14.23;7.92;;;;;;;-0.49;67.22;99364.97;2174780;81;20994;-75
2021/12/04 00:06:20;;;;;;;16.75;8.55;;;;;;;-0.51;67.23;99362.97;2169810;81;21080;-75
2021/12/04 00:09:20;;;;;;;12.60;8.10;;;;;;;-0.53;67.29;99361.42;2163531;81;21063;-75
2021/12/04 00:12:21;;;;;;;14.03;7.95;;;;;;;-0.56;67.31;99359.88;2171036;81;21003;-75
2021/12/04 00:15:22;;;;;;;14.58;8.28;;;;;;;-0.54;67.32;99355.36;2175635;81;21041;-75
2021/12/04 00:18:24;;;;;;;14.98;8.18;;;;;;;-0.52;67.28;99345.66;2176492;81;21089;-75
2021/12/04 00:21:25;;;;;;;15.98;8.58;;;;;;;-0.48;67.21;99348.85;2169765;81;21757;-75
2021/12/04 00:24:27;;;;;;;16.48;8.20;;;;;;;-0.46;67.17;99330.85;2171168;81;21591;-75
2021/12/04 00:27:29;;;;;;;13.75;7.55;;;;;;;-0.41;67.09;99327.09;2168686;81;21107;-75
2021/12/04 00:30:31;;;;;;;16.23;8.23;;;;;;;-0.38;67.04;99326.85;2165588;81;21072;-75
2021/12/04 00:33:34;;;;;;;14.45;7.50;;;;;;;-0.37;66.96;99323.28;2167351;81;21560;-75
2021/12/04 00:36:54;;;;;;;13.18;7.85;;;;;;;-0.34;66.57;99323.05;2167715;81;21412;-75
2021/12/04 00:43:22;;;;;;;13.72;7.60;;;;;;;-0.27;66.43;99313.83;2175930;81;21025;-75
2021/12/04 00:49:39;;;;;;;10.15;6.53;;;;;;;-0.19;66.11;99297.13;2167542;81;21011;-75
2021/12/04 00:52:40;;;;;;;11.93;7.03;;;;;;;-0.13;66.00;99294.04;2176831;80;21141;-75
2021/12/04 00:55:42;;;;;;;10.50;6.15;;;;;;;-0.13;65.88;99289.30;2172570;81;21580;-75
2021/12/04 00:58:44;;;;;;;8.93;5.45;;;;;;;-0.10;65.83;99296.41;2174506;79;21052;-76
2021/12/04 01:01:46;;;;;;;10.82;6.87;;;;;;;-0.08;65.65;99291.91;2170725;80;21453;-75
2021/12/04 01:04:48;;;;;;;10.60;6.05;;;;;;;-0.07;65.63;99287.04;2166012;81;20937;-75
2021/12/04 01:07:50;;;;;;;10.18;6.17;;;;;;;-0.08;65.27;99285.39;2172904;81;21543;-75
2021/12/04 01:10:51;;;;;;;10.38;6.67;;;;;;;-0.08;65.26;99273.66;2176183;81;21056;-75
2021/12/04 01:13:53;;;;;;;9.45;6.30;;;;;;;-0.08;65.24;99273.66;2167188;81;21125;-75
2021/12/04 01:16:55;;;;;;;9.88;6.37;;;;;;;-0.09;65.24;99274.58;2157622;81;21065;-75
2021/12/04 01:19:57;;;;;;;9.35;5.78;;;;;;;-0.06;65.19;99271.77;2168989;79;21065;-75
2021/12/04 01:22:58;;;;;;;10.05;5.70;;;;;;;-0.06;65.00;99269.16;2173452;81;21552;-75
2021/12/04 01:25:59;;;;;;;9.40;5.95;;;;;;;-0.04;64.71;99266.41;2173355;81;21005;-74
2021/12/04 01:29:01;;;;;;;9.55;6.08;;;;;;;-0.02;64.90;99261.44;2168186;81;21033;-76
2021/12/04 01:32:06;;;;;;;13.85;6.12;;;;;;;0.01;64.59;99268.19;2166764;81;21144;-75
2021/12/04 01:35:07;;;;;;;8.03;5.15;;;;;;;0.03;64.57;99262.84;2164354;81;21023;-75
2021/12/04 01:38:10;;;;;;;10.95;5.42;;;;;;;0.06;64.48;99259.98;2167816;81;21017;-75
2021/12/04 01:41:12;;;;;;;9.65;5.78;;;;;;;0.09;64.37;99261.08;2169985;81;21057;-75
2021/12/04 01:44:14;;;;;;;7.45;5.30;;;;;;;0.09;64.49;99259.77;2169230;81;21094;-75
2021/12/04 01:47:21;;;;;;;14.33;5.53;;;;;;;0.11;64.08;99253.94;2170383;81;21089;-75
2021/12/04 01:50:23;;;;;;;13.30;6.40;;;;;;;0.13;64.22;99240.30;2167281;81;21050;-75
2021/12/04 01:53:25;;;;;;;10.13;5.60;;;;;;;0.13;64.11;99239.00;2166026;81;21112;-74
2021/12/04 01:56:31;;;;;;;7.83;5.42;;;;;;;0.10;64.24;99243.16;2173137;81;22383;-75
2021/12/04 01:59:33;;;;;;;12.37;5.40;;;;;;;0.08;64.14;99234.62;2172759;81;21036;-75
2021/12/04 02:02:35;;;;;;;9.70;5.62;;;;;;;0.07;64.24;99223.84;2172162;81;21357;-74
2021/12/04 02:05:41;;;;;;;10.18;5.37;;;;;;;0.06;64.19;99216.95;2168356;81;20998;-75
2021/12/04 02:08:42;;;;;;;8.58;5.25;;;;;;;0.04;64.04;99215.78;2164293;81;21590;-75
2021/12/04 02:11:44;;;;;;;9.38;6.00;;;;;;;0.05;64.07;99209.60;2169172;81;21101;-76
2021/12/04 02:14:45;;;;;;;8.95;5.10;;;;;;;0.05;64.16;99203.56;2169462;81;21638;-74
2021/12/04 02:17:48;;;;;;;8.83;5.60;;;;;;;0.05;64.18;99200.95;2171256;81;21562;-75
2021/12/04 02:20:50;;;;;;;11.85;5.45;;;;;;;0.06;64.18;99201.30;2168970;81;21033;-74
2021/12/04 02:23:52;;;;;;;10.03;5.70;;;;;;;0.08;63.98;99189.80;2167683;81;21540;-75
2021/12/04 02:26:54;;;;;;;9.65;5.30;;;;;;;0.07;63.98;99192.53;2173059;81;21072;-75
2021/12/04 02:29:55;;;;;;;8.85;5.10;;;;;;;0.08;63.98;99188.48;2172179;81;21075;-76
2021/12/04 02:32:57;;;;;;;7.50;4.72;;;;;;;0.08;63.88;99183.27;2168033;81;21517;-74
2021/12/04 02:36:02;;;;;;;6.37;4.70;;;;;;;0.09;63.83;99184.13;2168412;81;21127;-75
2021/12/04 02:39:03;;;;;;;6.47;4.97;;;;;;;0.11;63.69;99184.80;2171371;81;21045;-75
2021/12/04 02:42:06;;;;;;;11.73;4.67;;;;;;;0.09;63.57;99174.52;2171942;81;21098;-75
2021/12/04 02:45:11;;;;;;;6.85;4.50;;;;;;;0.09;63.80;99174.99;2176590;81;21037;-75
2021/12/04 02:48:14;;;;;;;8.43;5.08;;;;;;;0.09;63.88;99172.38;2167170;81;21063;-75
2021/12/04 02:51:16;;;;;;;9.68;4.65;;;;;;;0.10;63.86;99167.03;2171603;81;21257;-76
2021/12/04 02:54:18;;;;;;;7.92;4.55;;;;;;;0.10;63.65;99164.91;2171890;80;21091;-76
2021/12/04 02:57:20;;;;;;;8.60;5.10;;;;;;;0.11;63.59;99163.94;2168436;81;21639;-74
2021/12/04 03:00:25;;;;;;;10.30;5.10;;;;;;;0.09;63.63;99171.91;2164375;81;21133;-75
2021/12/04 03:03:27;;;;;;;9.68;5.22;;;;;;;0.09;63.61;99170.59;2171604;80;21561;-75
2021/12/04 03:06:29;;;;;;;8.55;4.87;;;;;;;0.09;63.62;99154.13;2173816;81;21080;-75
2021/12/04 03:09:30;;;;;;;11.40;5.30;;;;;;;0.08;63.44;99157.66;2170762;81;21062;-75
2021/12/04 03:12:32;;;;;;;7.55;4.65;;;;;;;0.10;63.65;99153.98;2166464;81;21043;-75
2021/12/04 03:15:34;;;;;;;10.85;4.75;;;;;;;0.11;63.74;99148.28;2171231;81;21025;-75
2021/12/04 03:18:35;;;;;;;9.55;4.87;;;;;;;0.11;63.69;99141.77;2167349;81;21031;-74
2021/12/04 03:21:38;;;;;;;9.10;4.65;;;;;;;0.10;63.58;99135.72;2168069;81;21503;-74
2021/12/04 03:24:42;;;;;;;9.15;4.75;;;;;;;0.11;63.57;99127.41;2164324;81;21030;-75
2021/12/04 03:27:47;;;;;;;9.18;4.55;;;;;;;0.12;63.70;99127.30;2164122;81;21081;-75
2021/12/04 03:30:55;;;;;;;10.10;5.33;;;;;;;0.13;63.43;99119.00;2172718;81;21524;-75
2021/12/04 03:43:35;;;;;;;9.20;4.28;;;;;;;0.20;63.26;99094.08;2164167;81;21887;-76
2021/12/04 03:46:36;;;;;;;8.73;4.17;;;;;;;0.22;63.05;99097.37;2171987;80;21550;-76
2021/12/04 03:49:38;;;;;;;5.67;3.58;;;;;;;0.26;63.25;99094.87;2171077;81;21056;-76
2021/12/04 03:52:40;;;;;;;8.40;4.12;;;;;;;0.30;63.30;99104.09;2164754;80;21032;-75
2021/12/04 03:55:41;;;;;;;5.95;3.80;;;;;;;0.31;62.98;99097.94;2170744;81;21044;-76
2021/12/04 03:58:43;;;;;;;8.93;4.03;;;;;;;0.32;63.01;99099.59;2165292;81;21107;-76
2021/12/04 04:01:44;;;;;;;6.67;3.77;;;;;;;0.33;63.04;99105.62;2165847;81;21078;-75
2021/12/04 04:04:45;;;;;;;6.30;3.62;;;;;;;0.31;63.06;99097.94;2167354;81;21095;-76
2021/12/04 04:07:47;;;;;;;6.72;3.50;;;;;;;0.31;62.73;99097.94;2172534;81;21086;-76
2021/12/04 04:10:51;;;;;;;5.72;3.85;;;;;;;0.30;62.88;99091.05;2171940;81;21567;-76
2021/12/04 04:13:52;;;;;;;8.28;4.55;;;;;;;0.29;62.82;99090.70;2164158;81;21024;-75
2021/12/04 04:16:56;;;;;;;7.33;4.67;;;;;;;0.27;62.91;99090.00;2166317;81;21750;-76
2021/12/04 04:19:58;;;;;;;7.37;4.05;;;;;;;0.24;62.90;99079.81;2159541;81;21037;-76
2021/12/04 04:23:02;;;;;;;8.25;3.87;;;;;;;0.24;62.81;99078.99;2169480;80;21091;-76
2021/12/04 04:26:03;;;;;;;8.80;4.50;;;;;;;0.21;62.73;99082.68;2171572;81;21056;-76
2021/12/04 04:29:07;;;;;;;7.60;4.40;;;;;;;0.17;62.93;99076.89;2168583;81;21495;-76
2021/12/04 04:32:09;;;;;;;8.05;4.60;;;;;;;0.15;62.44;99080.09;2174611;81;21374;-76
2021/12/04 04:35:14;;;;;;;8.28;4.67;;;;;;;0.13;62.65;99078.56;2168951;81;21076;-75
2021/12/04 04:38:39;;;;;;;8.13;4.42;;;;;;;0.10;62.75;99073.60;2169470;79;21021;-76
2021/12/04 05:11:44;;;;;;;9.68;5.65;;;;;;;-0.35;62.80;99065.94;2164583;81;21122;-75
2021/12/04 05:14:46;;;;;;;15.95;8.55;;;;;;;-0.43;62.97;99070.94;2175412;81;21496;-76
2021/12/04 05:21:10;;;;;;;11.20;6.42;;;;;;;-0.52;63.05;99068.59;2171028;81;21085;-75
2021/12/04 05:23:57;;;;;;;12.03;6.55;;;;;;;-0.57;62.97;99062.91;2167008;81;21161;-77
2021/12/04 05:26:59;;;;;;;13.78;7.00;;;;;;;-0.60;63.09;99069.67;2169480;81;21692;-76
2021/12/04 05:30:00;;;;;;;13.13;6.90;;;;;;;-0.64;63.20;99065.19;2168277;81;21158;-75
2021/12/04 05:33:03;;;;;;;15.75;8.15;;;;;;;-0.65;63.34;99067.42;2162609;80;21091;-76
2021/12/04 05:36:05;;;;;;;15.10;7.70;;;;;;;-0.66;63.29;99063.65;2171565;81;21009;-76
2021/12/04 05:39:08;;;;;;;14.15;7.20;;;;;;;-0.70;63.30;99064.37;2173417;81;21054;-75
2021/12/04 05:42:09;;;;;;;14.03;6.80;;;;;;;-0.73;63.39;99061.53;2167920;81;21587;-76
2021/12/04 05:45:18;;;;;;;16.35;7.30;;;;;;;-0.76;63.40;99067.44;2178130;81;20946;-76
2021/12/04 05:48:30;;;;;;;16.37;7.55;;;;;;;-0.79;63.37;99059.86;2171144;81;21093;-77
2021/12/04 05:58:06;;;;;;;14.83;7.20;;;;;;;-0.93;63.67;99060.48;2164362;81;21026;-76
2021/12/04 06:01:08;;;;;;;15.20;7.05;;;;;;;-0.98;63.85;99061.31;2163775;81;21547;-76
2021/12/04 06:04:10;;;;;;;13.55;7.37;;;;;;;-1.01;63.97;99060.73;2172785;80;21065;-75
2021/12/04 06:07:12;;;;;;;14.65;6.55;;;;;;;-1.05;64.02;99057.52;2172362;80;21557;-76
2021/12/04 06:10:14;;;;;;;15.88;7.95;;;;;;;-1.08;64.28;99060.84;2175409;80;21506;-77
2021/12/04 06:13:17;;;;;;;10.93;6.47;;;;;;;-1.11;64.44;99058.00;2166608;81;21111;-76
2021/12/04 06:16:18;;;;;;;17.87;10.40;;;;;;;-1.16;64.50;99060.12;2169630;80;21618;-76
2021/12/04 06:22:41;;;;;;;13.65;7.65;;;;;;;-1.21;64.84;99051.38;2173994;81;21050;-77
2021/12/04 06:25:42;;;;;;;15.78;7.45;;;;;;;-1.23;65.07;99052.45;2174795;81;20976;-77
2021/12/04 06:28:44;;;;;;;13.03;7.20;;;;;;;-1.27;65.11;99055.73;2170348;81;21610;-80
2021/12/04 06:31:45;;;;;;;13.78;7.87;;;;;;;-1.29;65.20;99051.62;2169913;80;21009;-77
2021/12/04 06:34:47;;;;;;;16.37;7.40;;;;;;;-1.27;65.25;99054.91;2161848;81;21049;-77
2021/12/04 06:37:50;;;;;;;13.32;7.75;;;;;;;-1.28;65.27;99051.96;2175198;80;20967;-78
2021/12/04 06:40:51;;;;;;;19.82;9.00;;;;;;;-1.25;65.33;99051.72;2169418;80;21121;-74
2021/12/04 06:43:56;;;;;;;17.32;9.25;;;;;;;-1.23;65.38;99055.05;2170874;81;20979;-74
2021/12/04 06:46:57;;;;;;;15.75;8.50;;;;;;;-1.21;65.49;99048.78;2167193;81;20985;-73
2021/12/04 06:50:11;;;;;;;12.45;7.70;;;;;;;-1.18;65.44;99047.72;2176857;80;21085;-73
2021/12/04 06:56:23;;;;;;;14.53;8.48;;;;;;;-1.16;65.48;99021.89;2170764;80;21111;-75
2021/12/04 06:59:29;;;;;;;15.05;7.47;;;;;;;-1.14;65.48;99032.20;2166400;81;21135;-76
2021/12/04 07:02:29;;;;;;;13.98;7.42;;;;;;;-1.12;65.56;99032.92;2172585;79;21028;-76
2021/12/04 07:05:30;;;;;;;14.98;8.25;;;;;;;-1.09;65.45;99031.38;2169034;80;21062;-74
2021/12/04 07:08:32;;;;;;;15.05;7.85;;;;;;;-1.06;65.52;99034.22;2170017;80;21555;-75
2021/12/04 07:11:34;;;;;;;14.78;7.95;;;;;;;-1.05;65.46;99028.88;2164173;81;21088;-77
2021/12/04 07:14:35;;;;;;;14.30;7.28;;;;;;;-1.02;65.38;99028.63;2169217;80;21622;-73
2021/12/04 07:17:37;;;;;;;14.30;8.50;;;;;;;-0.99;65.42;99022.36;2171107;80;20974;-76
2021/12/04 07:20:39;;;;;;;11.80;7.17;;;;;;;-0.97;65.41;99026.50;2164698;81;21062;-75
2021/12/04 07:23:41;;;;;;;14.83;7.62;;;;;;;-0.94;65.43;99026.73;2168444;80;21002;-74
2021/12/04 07:26:43;;;;;;;14.98;8.38;;;;;;;-0.91;65.31;99028.62;2166479;81;21070;-72
2021/12/04 07:29:45;;;;;;;11.57;7.47;;;;;;;-0.85;65.30;99026.48;2165277;80;21062;-73
2021/12/04 07:32:47;;;;;;;13.25;7.80;;;;;;;-0.82;65.22;99017.13;2168217;80;21094;-72
2021/12/04 07:35:49;;;;;;;14.20;7.62;;;;;;;-0.78;65.26;99023.29;2165423;80;20997;-74
2021/12/04 07:38:52;;;;;;;14.13;8.48;;;;;;;-0.73;65.27;99025.54;2164003;80;21367;-75
2021/12/04 07:41:53;;;;;;;13.28;8.80;;;;;;;-0.67;65.16;99024.23;2166294;80;21533;-76
2021/12/04 07:44:55;;;;;;;14.80;8.00;;;;;;;-0.64;65.04;99016.16;2161733;81;23618;-75
2021/12/04 07:47:58;;;;;;;17.00;8.83;;;;;;;-0.61;65.04;99019.83;2171794;81;20989;-75
2021/12/04 07:51:02;;;;;;;13.35;8.28;;;;;;;-0.59;64.96;99020.50;2172081;80;22572;-75
2021/12/04 07:54:04;;;;;;;12.15;7.92;;;;;;;-0.58;64.97;99021.70;2171273;81;21062;-75
2021/12/04 07:57:06;;;;;;;14.03;8.03;;;;;;;-0.55;64.83;99021.94;2173342;80;21052;-75
2021/12/04 08:00:13;;;;;;;14.10;8.93;;;;;;;-0.52;65.07;99017.78;2169632;81;21052;-75
2021/12/04 08:03:17;;;;;;;15.75;9.40;;;;;;;-0.47;65.05;99022.15;2170034;81;21053;-75
2021/12/04 08:06:18;;;;;;;14.80;9.05;;;;;;;-0.42;65.11;99016.09;2178020;79;21544;-75
2021/12/04 08:09:21;;;;;;;14.53;8.93;;;;;;;-0.34;65.08;99011.55;2171331;79;21108;-75
2021/12/04 08:12:24;;;;;;;13.20;8.90;;;;;;;-0.30;64.95;99007.75;2168066;80;21076;-74
2021/12/04 08:15:25;;;;;;;18.25;10.03;;;;;;;-0.25;65.02;99014.73;2174599;80;21052;-75
2021/12/04 08:18:28;;;;;;;15.48;8.65;;;;;;;-0.21;64.68;99014.00;2170342;81;21095;-74
2021/12/04 08:21:29;;;;;;;14.38;8.78;;;;;;;-0.20;64.63;99006.52;2172179;81;20940;-75
2021/12/04 08:24:31;;;;;;;14.47;9.45;;;;;;;-0.20;64.39;99014.34;2171915;79;21128;-75
2021/12/04 08:27:33;;;;;;;16.80;8.33;;;;;;;-0.16;64.78;99013.15;2164319;81;21016;-77
2021/12/04 08:30:39;;;;;;;15.65;8.88;;;;;;;-0.15;64.57;99005.66;2163072;81;21080;-75
2021/12/04 08:33:41;;;;;;;16.27;9.50;;;;;;;-0.11;64.17;99004.48;2173926;80;21032;-75
2021/12/04 08:36:43;;;;;;;15.68;8.95;;;;;;;-0.10;64.33;99007.42;2171517;79;21072;-76
2021/12/04 08:39:45;;;;;;;14.00;7.92;;;;;;;-0.07;64.43;99004.56;2165197;81;21084;-77
2021/12/04 08:42:47;;;;;;;17.15;9.48;;;;;;;-0.07;64.42;99007.99;2165691;81;21096;-77
2021/12/04 08:45:49;;;;;;;18.32;9.20;;;;;;;-0.07;64.27;99004.08;2174241;81;21112;-75
2021/12/04 08:48:54;;;;;;;15.95;9.23;;;;;;;-0.06;64.44;99009.67;2170228;80;21135;-71
2021/12/04 08:51:56;;;;;;;16.97;8.68;;;;;;;-0.05;64.47;99000.88;2164262;81;21449;-71
2021/12/04 08:54:58;;;;;;;14.87;8.68;;;;;;;-0.05;64.81;98999.58;2165652;81;21050;-70
2021/12/04 08:58:00;;;;;;;14.15;8.18;;;;;;;-0.08;64.86;98999.83;2178593;80;21068;-70
2021/12/04 09:01:05;;;;;;;16.70;8.40;;;;;;;-0.07;64.68;99005.39;2167627;81;21046;-70
2021/12/04 09:04:23;;;;;;;15.08;8.88;;;;;;;-0.08;64.76;99010.27;2174168;80;21488;-70
2021/12/04 09:07:19;;;;;;;17.12;9.23;;;;;;;-0.08;64.73;98995.92;2169877;81;21840;-72
2021/12/04 09:10:22;;;;;;;20.88;11.05;;;;;;;-0.05;64.71;99003.97;2170057;81;21068;-71
2021/12/04 09:13:28;;;;;;;19.60;10.03;;;;;;;-0.05;64.63;98990.45;2171080;80;21069;-71
2021/12/04 09:16:29;;;;;;;13.45;8.75;;;;;;;-0.02;64.63;98984.98;2163601;81;21089;-70
2021/12/04 09:19:30;;;;;;;15.53;9.13;;;;;;;0.04;64.60;98989.34;2166474;80;22104;-72
2021/12/04 09:22:35;;;;;;;12.85;7.90;;;;;;;0.09;64.14;98983.27;2175077;79;21548;-70
2021/12/04 09:25:38;;;;;;;13.88;7.85;;;;;;;0.15;63.25;98987.48;2164355;81;21052;-70
2021/12/04 09:28:53;;;;;;;18.98;8.48;;;;;;;0.20;63.55;98981.89;2165186;80;21567;-72
2021/12/04 09:32:52;;;;;;;14.33;8.58;;;;;;;0.21;63.59;98988.27;2171700;80;21056;-71
2021/12/04 09:35:13;;;;;;;14.45;8.53;;;;;;;0.21;63.45;98973.92;2140866;81;21534;-69
2021/12/04 10:01:54;;;;;;;12.70;7.80;;;;;;;0.49;62.04;98944.67;2172148;81;21099;-70
2021/12/04 10:12:10;;;;;;;14.90;8.20;;;;;;;0.56;62.56;98936.65;2174148;80;21595;-75
2021/12/04 10:15:28;;;;;;;14.43;8.60;;;;;;;0.60;62.38;98932.84;2169377;80;21041;-72
2021/12/04 10:21:45;;;;;;;17.48;8.70;;;;;;;0.64;62.56;98927.20;2170182;81;21083;-77
2021/12/04 10:24:56;;;;;;;15.63;9.15;;;;;;;0.66;62.49;98928.38;2162464;81;21099;-75
2021/12/04 10:34:30;;;;;;;20.88;11.05;;;;;;;0.69;62.74;98914.24;2171620;81;21073;-75
2021/12/04 10:37:34;;;;;;;18.15;9.30;;;;;;;0.71;62.37;98916.25;2171942;80;21061;-76
2021/12/04 10:40:47;;;;;;;18.73;9.55;;;;;;;0.71;62.65;98913.16;2175086;81;21006;-77
2021/12/04 10:43:48;;;;;;;15.28;9.13;;;;;;;0.70;62.43;98906.26;2171002;81;21093;-77
2021/12/04 10:47:08;;;;;;;17.62;9.25;;;;;;;0.70;62.78;98901.04;2174200;79;21048;-76
2021/12/04 10:50:23;;;;;;;18.80;10.05;;;;;;;0.71;62.80;98896.18;2172326;80;21064;-76
2021/12/04 10:53:26;;;;;;;22.98;11.28;;;;;;;0.73;63.10;98904.69;2161099;81;21584;-75
2021/12/04 10:59:52;;;;;;;18.85;10.03;;;;;;;0.77;63.16;98907.39;2161431;81;21063;-76
2021/12/04 11:03:01;;;;;;;18.45;10.50;;;;;;;0.79;63.14;98907.23;2167866;81;21080;-73
2021/12/04 11:26:32;;;;;;;18.55;10.90;;;;;;;1.03;63.75;98892.52;2131524;82;21064;-81
2021/12/04 11:36:07;;;;;;;15.48;8.80;;;;;;;1.08;63.68;98865.02;2133431;81;22905;-73
2021/12/04 11:38:39;;;;;;;14.53;8.23;;;;;;;1.07;63.54;98861.23;2127201;82;21010;-75
2021/12/04 11:41:42;;;;;;;14.80;8.20;;;;;;;1.08;63.56;98862.90;2133548;82;21092;-75
2021/12/04 11:44:56;;;;;;;15.60;7.78;;;;;;;1.12;63.49;98854.62;2127313;82;21538;-76
2021/12/04 11:47:54;;;;;;;11.70;7.40;;;;;;;1.15;63.50;98849.61;2107505;82;21095;-76
2021/12/04 11:50:56;;;;;;;14.95;8.23;;;;;;;1.17;63.41;98851.61;2129835;82;21076;-76
2021/12/04 11:53:58;;;;;;;14.70;7.42;;;;;;;1.22;63.33;98844.19;2131143;82;21069;-75
2021/12/04 11:57:08;;;;;;;13.98;8.05;;;;;;;1.27;63.38;98848.53;2128637;81;21060;-75
2021/12/04 12:00:27;;;;;;;15.03;9.43;;;;;;;1.47;63.71;98857.66;2088871;81;28608;-75
2021/12/04 12:03:32;;;;;;;11.25;7.70;;;;;;;1.47;63.71;98857.66;2128000;82;21041;-75
2021/12/04 12:06:49;;;;;;;12.50;8.18;;;;;;;1.55;63.30;98861.23;2129486;82;21034;-74
2021/12/04 12:10:11;;;;;;;14.65;8.80;;;;;;;1.56;63.42;98860.73;2132850;82;21049;-73
2021/12/04 12:13:31;;;;;;;15.43;7.75;;;;;;;1.60;63.53;98863.41;2134925;82;22239;-73
2021/12/04 12:16:44;;;;;;;13.68;9.08;;;;;;;1.63;63.49;98859.20;2117801;82;21068;-74
2021/12/04 12:19:53;;;;;;;13.50;8.13;;;;;;;1.67;63.42;98858.45;2126459;81;21044;-73
2021/12/04 12:23:06;;;;;;;15.35;9.35;;;;;;;1.62;63.61;98849.72;2107444;82;21122;-73
2021/12/04 12:26:16;;;;;;;15.45;8.88;;;;;;;1.57;63.35;98836.23;2136090;82;21025;-73
2021/12/04 12:33:25;;;;;;;17.05;9.20;;;;;;;1.48;63.69;98830.55;2136383;82;21120;-73
2021/12/04 12:36:30;;;;;;;20.45;8.23;;;;;;;1.49;63.95;98823.89;2127673;82;21096;-73
2021/12/04 12:39:32;;;;;;;17.73;9.33;;;;;;;1.53;63.22;98820.02;2138124;82;21044;-74
2021/12/04 12:42:40;;;;;;;13.40;7.65;;;;;;;1.55;63.54;98819.88;2129861;81;21081;-74
2021/12/04 12:45:58;;;;;;;12.07;7.45;;;;;;;1.56;62.95;98821.52;2135904;82;21388;-73
2021/12/04 12:49:00;;;;;;;15.13;7.95;;;;;;;1.61;63.11;98818.01;2135835;82;21076;-73
2021/12/04 12:52:25;;;;;;;12.58;7.03;;;;;;;1.66;62.94;98817.11;2128645;82;21073;-73
2021/12/04 12:55:31;;;;;;;12.45;6.58;;;;;;;1.70;62.84;98811.92;2115284;81;21405;-73
2021/12/04 12:58:38;;;;;;;14.30;7.83;;;;;;;1.75;62.14;98812.32;2131050;82;21126;-73
2021/12/04 13:12:06;;;;;;;12.33;5.75;;;;;;;1.89;62.99;98794.53;2125525;82;21100;-73
2021/12/04 13:15:06;;;;;;;10.80;5.67;;;;;;;1.89;62.97;98791.91;2129293;82;21814;-73
2021/12/04 13:18:16;;;;;;;13.10;6.70;;;;;;;1.87;63.14;98785.99;2132757;82;21076;-73
2021/12/04 13:21:18;;;;;;;9.78;5.33;;;;;;;1.85;63.34;98770.91;2137638;82;21057;-73
2021/12/04 13:24:26;;;;;;;10.85;6.58;;;;;;;1.84;63.31;98770.09;2133317;82;21046;-74
2021/12/04 13:30:31;;;;;;;9.90;5.60;;;;;;;1.84;63.58;98777.12;2129522;82;21631;-73
2021/12/04 13:33:37;;;;;;;8.95;5.37;;;;;;;1.84;63.62;98767.97;2131509;82;21069;-74
2021/12/04 13:36:45;;;;;;;8.58;5.12;;;;;;;1.83;63.69;98772.39;2134392;82;21000;-73
2021/12/04 13:39:47;;;;;;;9.25;5.83;;;;;;;1.83;63.83;98775.00;2130964;82;21611;-74
2021/12/04 13:42:49;;;;;;;9.48;5.35;;;;;;;1.79;64.01;98773.63;2131977;82;21128;-73
2021/12/04 13:45:59;;;;;;;11.05;5.67;;;;;;;1.74;63.95;98764.89;2129097;82;21034;-72
2021/12/04 13:49:03;;;;;;;12.40;7.67;;;;;;;1.68;63.98;98755.00;2131573;82;21597;-74
2021/12/04 13:52:09;;;;;;;12.13;6.60;;;;;;;1.63;64.21;98764.25;2138680;82;20974;-73
2021/12/04 13:55:14;;;;;;;12.75;6.97;;;;;;;1.55;64.03;98756.65;2127437;82;21061;-73
2021/12/04 13:58:16;;;;;;;10.20;6.55;;;;;;;1.53;63.93;98764.29;2136541;82;21063;-73
2021/12/04 14:01:18;;;;;;;11.48;6.53;;;;;;;1.52;63.72;98765.23;2128903;82;21527;-73
2021/12/04 14:04:20;;;;;;;11.12;7.42;;;;;;;1.50;63.79;98762.78;2133236;82;21095;-73
2021/12/04 14:07:21;;;;;;;13.10;7.92;;;;;;;1.52;63.75;98763.92;2129070;82;22233;-73
2021/12/04 14:10:30;;;;;;;12.58;7.80;;;;;;;1.50;63.83;98760.66;2132260;82;21045;-73
2021/12/04 14:13:33;;;;;;;12.80;8.20;;;;;;;1.47;63.68;98746.56;2135130;82;21079;-72
2021/12/04 14:16:36;;;;;;;13.53;8.78;;;;;;;1.45;63.87;98758.95;2137052;82;21512;-73
2021/12/04 14:19:41;;;;;;;13.75;8.58;;;;;;;1.44;63.63;98754.69;2133391;82;21103;-73
2021/12/04 14:22:49;;;;;;;15.18;8.75;;;;;;;1.39;63.83;98748.57;2139805;82;21048;-73
2021/12/04 14:25:54;;;;;;;15.35;9.25;;;;;;;1.37;63.84;98747.06;2130738;82;21551;-73
2021/12/04 14:28:56;;;;;;;18.48;9.80;;;;;;;1.34;63.89;98743.76;2137653;82;21036;-73
2021/12/04 14:31:57;;;;;;;16.80;9.68;;;;;;;1.33;63.89;98742.13;2137027;82;21014;-73
2021/12/04 14:35:04;;;;;;;17.42;9.90;;;;;;;1.31;64.06;98740.12;2132026;82;21057;-73
2021/12/04 14:38:10;;;;;;;16.87;10.40;;;;;;;1.29;64.06;98743.84;2131492;82;21589;-73
2021/12/04 14:41:12;;;;;;;19.12;11.12;;;;;;;1.27;64.15;98747.92;2134867;82;21043;-73
2021/12/04 14:44:14;;;;;;;23.20;13.95;;;;;;;1.26;64.26;98758.01;2131550;82;21306;-73
2021/12/04 14:47:16;;;;;;;23.85;12.63;;;;;;;1.23;64.24;98745.23;2141124;81;21079;-73
2021/12/04 14:50:21;;;;;;;27.55;14.90;;;;;;;1.23;64.21;98745.23;2139683;81;21040;-73
2021/12/04 14:53:23;;;;;;;21.93;12.68;;;;;;;1.21;64.28;98738.49;2135248;82;21497;-73
2021/12/04 14:56:27;;;;;;;23.80;13.48;;;;;;;1.19;64.28;98736.03;2127490;82;21009;-73
2021/12/04 14:59:33;;;;;;;19.52;11.50;;;;;;;1.18;64.33;98729.63;2136119;82;21111;-73
2021/12/04 15:02:36;;;;;;;24.52;12.40;;;;;;;1.19;64.33;98726.07;2135160;82;21111;-73
2021/12/04 15:05:43;;;;;;;23.02;11.93;;;;;;;1.16;64.33;98733.70;2132853;82;21010;-72
2021/12/04 15:08:55;;;;;;;22.77;12.98;;;;;;;1.17;64.43;98737.14;2130583;82;21545;-72
2021/12/04 15:12:00;;;;;;;26.48;13.60;;;;;;;1.13;64.48;98736.60;2132597;82;21080;-73
2021/12/04 15:15:10;;;;;;;23.38;12.60;;;;;;;1.10;64.58;98731.66;2127460;82;21080;-73
2021/12/04 15:18:14;;;;;;;19.73;11.12;;;;;;;1.06;64.67;98726.36;2135396;82;21057;-72
2021/12/04 15:21:17;;;;;;;19.90;11.68;;;;;;;1.04;64.70;98730.89;2128317;82;21100;-73
2021/12/04 15:24:24;;;;;;;17.62;10.70;;;;;;;0.98;64.82;98730.97;2132730;82;21057;-73
2021/12/04 15:27:28;;;;;;;19.52;11.33;;;;;;;0.97;64.86;98731.13;2105227;82;20998;-73
2021/12/04 15:30:30;;;;;;;21.15;11.90;;;;;;;0.95;64.83;98731.73;2130920;82;21638;-74
2021/12/04 15:33:40;;;;;;;20.05;10.82;;;;;;;0.93;64.86;98738.42;2130112;81;21551;-73
2021/12/04 15:36:47;;;;;;;17.98;10.18;;;;;;;0.92;64.89;98735.93;2130496;82;21044;-73
2021/12/04 15:39:48;;;;;;;22.82;12.50;;;;;;;0.88;64.86;98732.30;2130237;82;21009;-73
2021/12/04 15:46:26;;;;;;;21.82;11.53;;;;;;;0.83;64.94;98737.59;2127016;82;21085;-74
2021/12/04 15:55:56;;;;;;;21.07;11.45;;;;;;;0.72;65.08;98724.19;2126873;82;21523;-73
2021/12/04 15:58:59;;;;;;;17.67;10.82;;;;;;;0.68;65.14;98729.36;2131039;82;21036;-73
2021/12/04 16:02:12;;;;;;;21.12;11.15;;;;;;;0.63;65.25;98723.72;2134490;82;21088;-73
2021/12/04 16:05:19;;;;;;;20.00;10.82;;;;;;;0.60;65.42;98725.30;2130191;82;21002;-73
2021/12/04 16:08:27;;;;;;;24.60;12.45;;;;;;;0.54;65.46;98725.37;2130979;82;21096;-73
2021/12/04 16:11:36;;;;;;;21.12;11.40;;;;;;;0.53;65.47;98726.80;2132666;82;21051;-73
2021/12/04 16:14:42;;;;;;;20.40;11.18;;;;;;;0.51;65.49;98728.25;2133561;81;21086;-74
2021/12/04 16:17:44;;;;;;;21.35;11.05;;;;;;;0.48;65.62;98729.84;2131496;82;21042;-74
2021/12/04 16:20:46;;;;;;;22.17;11.30;;;;;;;0.45;65.70;98731.38;2132260;82;21069;-74
2021/12/04 16:23:49;;;;;;;18.90;11.35;;;;;;;0.43;65.87;98735.94;2141390;82;21080;-74
2021/12/04 16:26:56;;;;;;;17.67;10.48;;;;;;;0.41;65.82;98743.89;2131224;82;21080;-74
2021/12/04 16:30:22;;;;;;;17.32;10.90;;;;;;;0.40;65.93;98740.95;2120915;82;21011;-73
2021/12/04 16:36:25;;;;;;;22.30;11.05;;;;;;;0.38;66.02;98738.94;2133934;82;21103;-74
2021/12/04 16:39:25;;;;;;;20.23;10.72;;;;;;;0.37;65.99;98735.19;2129850;82;21065;-74
2021/12/04 16:42:28;;;;;;;19.00;11.15;;;;;;;0.36;66.04;98742.64;2126984;82;21036;-74
2021/12/04 16:45:32;;;;;;;19.57;10.50;;;;;;;0.35;66.09;98735.79;2133446;82;22685;-74
2021/12/04 16:48:39;;;;;;;21.73;11.10;;;;;;;0.34;66.10;98737.58;2130567;82;21110;-73
2021/12/04 16:55:21;;;;;;;22.60;12.00;;;;;;;0.38;66.18;98738.94;2130198;82;21045;-74
2021/12/04 16:58:13;;;;;;;21.10;11.12;;;;;;;0.36;66.19;98742.16;2134052;82;21076;-75
2021/12/04 17:01:18;;;;;;;20.15;11.45;;;;;;;0.36;66.26;98734.82;2131999;82;21021;-74
2021/12/04 17:04:24;;;;;;;21.85;11.60;;;;;;;0.36;66.24;98743.95;2130779;82;21167;-73
2021/12/04 17:07:26;;;;;;;19.42;11.18;;;;;;;0.36;66.18;98738.25;2128346;82;21120;-74
2021/12/04 17:10:30;;;;;;;21.10;10.85;;;;;;;0.35;66.14;98740.52;2134771;82;21113;-73